KAHN/AHN METAR and TAF weather

Enter ICAO airport designator
Station Type Date Time Source
KAHN METAR 2020/02/22 05:51 UTC NOAA

KAHN 220551Z AUTO 00000KT 10SM CLR M01/M04 A3045 RMK AO2 SLP318 T10111039 10039 21011 58007 $


Station Type Date Time Source
KAHN Decoded METAR 2020/02/22 05:51 UTC NOAA

ATHENS BEN EPPS AIRPORT, GA, United States (KAHN) 33-57N 083-20W 244M
Feb 22, 2020 - 12:51 AM EST / 2020.02.22 0551 UTC
Wind: Calm:0
Visibility: 10 mile(s):0
Sky conditions: clear
Temperature: 30.0 F (-1.1 C)
Dew Point: 25.0 F (-3.9 C)
Relative Humidity: 81%
Pressure (altimeter): 30.45 in. Hg (1031 hPa)
Pressure tendency: 0.02 inches (0.7 hPa) lower than three hours ago
ob: KAHN 220551Z AUTO 00000KT 10SM CLR M01/M04 A3045 RMK AO2 SLP318 T10111039 10039 21011 58007
cycle: 6

Station Type Date Time Source
KAHN TAF 2020/02/22 06:22 UTC NOAA

TAF KAHN 220520Z 2206/2306 00000KT P6SM SKC
FM221500 26004KT P6SM SKC

Example: see airport list